Terminal Aerodrome Forecast
Issued by NWS

Home | Current Version | Previous Version | Graphics & Text | Print | Product List | Glossary On
Versions: 1 2 3 4 5 6 7 8 9 10 11 12 13 14 15 16 17 18 19
000
FTUS43 KICT 291740
TAFCNU
TAF
KCNU 291740Z 2918/3018 02015G22KT P6SM -SHRA VCTS OVC008CB
      TEMPO 2918/2922 2SM +TSRA SCT008CB OVC015
     FM292200 04015G22KT P6SM -RA OVC008
      TEMPO 2922/3002 1SM +TSRA OVC003CB
     FM300200 03012G20KT 3SM -RA VCTS OVC008CB
     FM300700 14007KT 5SM BR VCSH OVC003
     FM301200 19010KT P6SM OVC015=

USA.gov is the U.S. government's official web portal to all federal, state and local government web resources and services.